createdAt,value
2019-03-06T00:09:34.007Z,6.75
2019-03-06T00:12:02.681Z,6.68
2019-03-06T00:14:31.137Z,6.68
2019-03-06T00:16:59.582Z,6.75
2019-03-06T00:19:28.218Z,6.78
2019-03-06T00:22:16.131Z,6.82
2019-03-06T00:24:44.641Z,6.86
2019-03-06T00:27:32.395Z,6.87
2019-03-06T00:30:00.873Z,6.79
2019-03-06T00:32:29.338Z,6.84
2019-03-06T00:37:48.626Z,7.02
2019-03-06T00:40:36.259Z,7.04
2019-03-06T00:43:44.658Z,7.10
2019-03-06T00:49:02.503Z,7.13
2019-03-06T00:51:31.016Z,7.17
2019-03-06T00:53:59.465Z,7.14
2019-03-06T00:57:08.243Z,7.24
2019-03-06T00:59:36.689Z,7.23
2019-03-06T01:02:06.861Z,7.15
2019-03-06T01:04:35.728Z,7.16
2019-03-06T01:07:04.166Z,7.16
2019-03-06T01:09:52.081Z,7.12
2019-03-06T01:12:39.737Z,7.18
2019-03-06T01:15:48.144Z,7.23
2019-03-06T01:24:17.710Z,7.27
2019-03-06T01:26:46.165Z,7.26
2019-03-06T01:29:33.970Z,7.26
2019-03-06T01:32:02.730Z,7.32
2019-03-06T01:34:50.402Z,7.26
2019-03-06T01:40:48.263Z,7.25
2019-03-06T01:43:35.899Z,7.13
2019-03-06T01:46:04.618Z,7.00
2019-03-06T01:48:52.275Z,6.84
2019-03-06T01:51:20.849Z,6.75
2019-03-06T01:54:08.487Z,6.67
2019-03-06T01:56:56.289Z,6.71
2019-03-06T01:59:24.743Z,7.06
2019-03-06T02:02:12.548Z,6.74
2019-03-06T02:04:41.074Z,6.61
2019-03-06T02:07:49.522Z,6.63
2019-03-06T02:16:00.222Z,6.34
2019-03-06T02:19:08.641Z,6.40
2019-03-06T02:21:56.406Z,6.21
2019-03-06T02:24:24.897Z,6.14
2019-03-06T02:27:12.628Z,6.11
2019-03-06T02:30:00.542Z,6.11
2019-03-06T02:32:30.539Z,6.08
2019-03-06T02:34:58.991Z,5.98
2019-03-06T02:37:46.678Z,6.04
2019-03-06T02:40:15.298Z,6.03
2019-03-06T02:42:43.727Z,6.15
2019-03-06T02:45:31.551Z,6.11
2019-03-06T02:48:00.006Z,6.37
2019-03-06T02:50:28.647Z,6.23
2019-03-06T02:53:16.460Z,6.12
2019-03-06T02:55:44.920Z,5.94
2019-03-06T02:58:32.796Z,6.16
2019-03-06T03:01:20.374Z,6.11
2019-03-06T03:04:08.058Z,6.04
2019-03-06T03:12:19.033Z,6.12
2019-03-06T03:14:47.520Z,6.10
2019-03-06T03:17:35.492Z,6.10
2019-03-06T03:20:44.020Z,6.14
2019-03-06T03:23:14.458Z,6.30
2019-03-06T03:26:02.167Z,6.09
2019-03-06T03:28:30.626Z,6.20
2019-03-06T03:30:59.125Z,6.05
2019-03-06T03:33:29.299Z,6.01
2019-03-06T03:35:57.759Z,5.70
2019-03-06T03:38:26.214Z,5.74
2019-03-06T03:40:54.752Z,5.63
2019-03-06T03:43:23.209Z,5.48
2019-03-06T03:48:40.969Z,5.29
2019-03-06T03:51:09.421Z,5.10
2019-03-06T03:53:37.879Z,5.07
2019-03-06T03:56:08.102Z,5.13
2019-03-06T03:58:36.555Z,4.95
2019-03-06T04:01:44.990Z,4.84
2019-03-06T04:04:32.780Z,4.87
2019-03-06T04:09:56.191Z,4.90
2019-03-06T04:12:24.942Z,4.82
2019-03-06T04:18:06.375Z,4.81
2019-03-06T04:23:08.508Z,4.83
2019-03-06T04:25:37.033Z,4.86
2019-03-06T04:28:24.992Z,4.85
2019-03-06T04:30:53.519Z,4.72
2019-03-06T04:33:21.992Z,4.65
2019-03-06T04:35:50.510Z,4.73
2019-03-06T04:38:18.963Z,4.61
2019-03-06T04:40:47.422Z,4.56
2019-03-06T04:43:35.338Z,4.37
2019-03-06T04:46:03.812Z,4.34
2019-03-06T04:48:32.251Z,4.25
2019-03-06T04:51:00.747Z,4.22
2019-03-06T04:53:29.214Z,4.05
2019-03-06T04:55:57.682Z,4.04
2019-03-06T05:01:19.584Z,3.76
2019-03-06T05:03:48.095Z,3.75
2019-03-06T05:06:37.587Z,3.70
2019-03-06T05:09:46.065Z,3.37
2019-03-06T05:12:14.524Z,3.29
2019-03-06T05:14:43.281Z,3.25
2019-03-06T05:17:31.079Z,3.22
2019-03-06T05:19:59.531Z,2.98
2019-03-06T05:22:27.992Z,2.98
2019-03-06T05:24:56.498Z,3.12
2019-03-06T05:27:24.955Z,3.10
2019-03-06T05:29:53.416Z,2.85
2019-03-06T05:32:41.347Z,2.85
2019-03-06T05:35:49.745Z,2.98
2019-03-06T05:38:58.319Z,3.18
2019-03-06T05:41:26.783Z,3.13
2019-03-06T05:46:43.091Z,3.19
2019-03-06T05:49:13.267Z,3.04
2019-03-06T05:51:41.724Z,3.03
2019-03-06T05:56:44.588Z,3.28
2019-03-06T05:59:13.084Z,3.20
2019-03-06T06:02:00.741Z,3.12
2019-03-06T06:04:29.240Z,2.98
2019-03-06T06:06:57.687Z,3.21
2019-03-06T06:09:27.871Z,3.23
2019-03-06T06:11:56.367Z,3.35
2019-03-06T06:14:24.822Z,3.21
2019-03-06T06:16:53.289Z,3.23
2019-03-06T06:22:15.497Z,3.43
2019-03-06T06:24:44.006Z,3.58
2019-03-06T06:27:12.468Z,3.41
2019-03-06T06:29:40.924Z,3.39
2019-03-06T06:32:09.418Z,3.45
2019-03-06T06:34:37.877Z,3.48
2019-03-06T06:37:06.361Z,3.49
2019-03-06T06:42:27.953Z,3.66
2019-03-06T06:47:50.308Z,3.87
2019-03-06T06:50:38.041Z,3.79
2019-03-06T06:53:45.085Z,3.88
2019-03-06T06:56:52.197Z,3.86
2019-03-06T06:59:59.235Z,3.91
2019-03-06T07:03:25.628Z,4.21
2019-03-06T07:06:32.531Z,4.03
2019-03-06T07:09:20.169Z,4.00
2019-03-06T07:12:07.927Z,4.08
2019-03-06T07:14:55.553Z,4.05
2019-03-06T07:23:27.172Z,4.54
2019-03-06T07:32:17.994Z,4.99
2019-03-06T07:35:44.185Z,4.83
2019-03-06T07:41:07.122Z,4.98
2019-03-06T07:46:44.210Z,5.17
2019-03-06T07:49:32.051Z,5.25
2019-03-06T07:52:19.753Z,5.38
2019-03-06T07:55:07.596Z,5.38
2019-03-06T07:58:16.082Z,5.42
2019-03-06T08:01:03.730Z,5.55
2019-03-06T08:03:51.687Z,5.49
2019-03-06T08:06:20.224Z,5.60
2019-03-06T08:08:48.739Z,5.92
2019-03-06T08:16:51.147Z,6.54
2019-03-06T08:19:58.142Z,6.73
2019-03-06T08:22:45.904Z,6.92
2019-03-06T08:28:22.562Z,7.38
2019-03-06T08:31:29.470Z,7.61
2019-03-06T08:34:17.264Z,7.63
2019-03-06T08:42:26.605Z,8.17
2019-03-06T08:44:55.193Z,8.37
2019-03-06T08:50:52.836Z,8.45
2019-03-06T08:53:40.434Z,8.43
2019-03-06T08:56:28.212Z,8.46
2019-03-06T08:59:15.878Z,8.70
2019-03-06T09:02:22.831Z,8.72
2019-03-06T09:08:18.917Z,8.88
2019-03-06T09:11:27.401Z,9.03
2019-03-06T09:14:36.231Z,9.15
2019-03-06T09:17:23.954Z,9.53
2019-03-06T09:20:12.254Z,9.58
2019-03-06T09:23:00.154Z,9.68
2019-03-06T09:26:07.032Z,9.79
2019-03-06T09:29:15.871Z,9.96
2019-03-06T09:32:03.494Z,10.19
2019-03-06T09:34:51.069Z,10.09
2019-03-06T09:37:38.838Z,10.11
2019-03-06T09:40:47.206Z,10.05
2019-03-06T09:43:34.966Z,10.43
2019-03-06T09:46:43.351Z,10.13
2019-03-06T09:49:31.362Z,10.48
2019-03-06T09:52:19.205Z,10.50
2019-03-06T09:55:07.082Z,10.52
2019-03-06T09:57:54.723Z,10.67
2019-03-06T10:03:36.866Z,11.09
2019-03-06T10:06:45.233Z,11.30
2019-03-06T10:09:59.165Z,11.18
2019-03-06T10:20:28.298Z,11.25
2019-03-06T10:23:36.798Z,11.37
2019-03-06T10:28:58.895Z,11.23
2019-03-06T10:31:27.380Z,11.20
2019-03-06T10:34:08.462Z,11.27
2019-03-06T10:42:38.538Z,11.42
2019-03-06T10:45:46.904Z,11.38
2019-03-06T10:48:34.634Z,11.44
2019-03-06T10:51:22.361Z,11.49
2019-03-06T10:54:10.176Z,11.58
2019-03-06T10:56:57.942Z,11.79
2019-03-06T10:59:45.619Z,11.95
2019-03-06T11:02:33.434Z,12.28
2019-03-06T11:08:36.772Z,12.66
2019-03-06T11:11:45.131Z,12.71
2019-03-06T11:14:32.870Z,12.66
2019-03-06T11:17:20.515Z,12.64
2019-03-06T11:19:50.858Z,12.56
2019-03-06T11:22:38.518Z,12.59
2019-03-06T11:25:47.104Z,12.62
2019-03-06T11:28:55.734Z,12.65
2019-03-06T11:31:43.535Z,12.46
2019-03-06T11:34:52.222Z,12.42
2019-03-06T11:38:00.765Z,12.39
2019-03-06T11:41:11.210Z,12.24
2019-03-06T11:43:39.755Z,12.32
2019-03-06T11:46:48.121Z,12.09
2019-03-06T11:49:36.067Z,12.03
2019-03-06T11:52:46.297Z,11.93
2019-03-06T11:55:54.723Z,12.09
2019-03-06T11:58:23.326Z,12.18
2019-03-06T12:01:32.098Z,12.20
2019-03-06T12:04:20.106Z,11.90
2019-03-06T12:07:07.933Z,11.96
2019-03-06T12:09:55.707Z,11.93
2019-03-06T12:12:43.512Z,11.96
2019-03-06T12:15:51.889Z,12.09
2019-03-06T12:19:00.366Z,12.21
2019-03-06T12:21:48.134Z,12.24
2019-03-06T12:26:50.323Z,12.57
2019-03-06T12:29:18.860Z,12.74
2019-03-06T12:32:06.672Z,12.90
2019-03-06T12:34:54.441Z,13.04
2019-03-06T12:37:23.002Z,13.27
2019-03-06T12:39:51.453Z,13.28
2019-03-06T12:45:53.509Z,13.43
2019-03-06T12:50:56.458Z,13.39
2019-03-06T12:53:25.889Z,13.46
2019-03-06T12:55:54.434Z,13.43
2019-03-06T12:58:22.939Z,13.59
2019-03-06T13:00:51.421Z,13.62
2019-03-06T13:03:19.882Z,13.69
2019-03-06T13:05:48.400Z,13.89
2019-03-06T13:11:10.669Z,14.00
2019-03-06T13:13:39.162Z,14.02
2019-03-06T13:19:35.115Z,14.19
2019-03-06T13:25:51.578Z,14.57
2019-03-06T13:28:39.244Z,14.71
2019-03-06T13:31:27.146Z,14.71
2019-03-06T13:34:16.414Z,14.88
2019-03-06T13:36:56.942Z,15.03
2019-03-06T13:39:25.488Z,15.07
2019-03-06T13:42:14.942Z,15.22
2019-03-06T13:44:43.478Z,15.24
2019-03-06T13:49:59.839Z,15.40
2019-03-06T13:52:28.354Z,15.23
2019-03-06T13:54:56.822Z,15.25
2019-03-06T13:57:44.711Z,15.33
2019-03-06T14:00:34.337Z,15.33
2019-03-06T14:03:02.948Z,15.18
2019-03-06T14:05:50.842Z,15.17
2019-03-06T14:08:21.122Z,15.24
2019-03-06T14:11:29.494Z,15.28
2019-03-06T14:16:31.814Z,15.40
2019-03-06T14:19:00.349Z,15.37
2019-03-06T14:21:28.945Z,15.45
2019-03-06T14:23:57.520Z,15.75
2019-03-06T14:26:45.446Z,15.67
2019-03-06T14:29:33.626Z,15.56
2019-03-06T14:32:21.551Z,15.32
2019-03-06T14:35:09.379Z,15.33
2019-03-06T14:40:32.223Z,15.08
2019-03-06T14:43:40.925Z,15.09
2019-03-06T14:46:51.050Z,14.97
2019-03-06T14:49:19.709Z,15.09
2019-03-06T14:57:11.841Z,14.99
2019-03-06T14:59:40.376Z,14.74
2019-03-06T15:02:50.493Z,14.88
2019-03-06T15:05:46.620Z,14.94
2019-03-06T15:08:27.793Z,15.01
2019-03-06T15:11:15.575Z,15.09
2019-03-06T15:14:24.295Z,14.93
2019-03-06T15:16:52.748Z,14.84
2019-03-06T15:19:42.215Z,14.66
2019-03-06T15:22:38.185Z,14.79
2019-03-06T15:25:19.430Z,14.66
2019-03-06T15:28:07.205Z,14.35
2019-03-06T15:30:54.938Z,14.54
2019-03-06T15:33:44.713Z,14.49
2019-03-06T15:44:36.141Z,14.56
2019-03-06T15:50:52.737Z,14.63
2019-03-06T15:53:24.355Z,14.59
2019-03-06T15:56:10.776Z,14.72
2019-03-06T15:58:39.225Z,14.79
2019-03-06T16:01:07.926Z,14.77
2019-03-06T16:04:16.618Z,14.70
2019-03-06T16:07:04.391Z,14.73
2019-03-06T16:10:12.873Z,14.65
2019-03-06T16:13:00.759Z,14.63
2019-03-06T16:16:09.491Z,14.67
2019-03-06T16:18:57.331Z,14.67
2019-03-06T16:23:59.978Z,14.72
2019-03-06T16:26:28.503Z,14.58
2019-03-06T16:28:56.984Z,14.55
2019-03-06T16:31:44.755Z,14.46
2019-03-06T16:34:13.285Z,14.35
2019-03-06T16:37:00.998Z,14.33
2019-03-06T16:39:48.906Z,14.18
2019-03-06T16:42:17.490Z,14.36
2019-03-06T16:44:45.942Z,14.30
2019-03-06T16:47:54.357Z,14.26
2019-03-06T16:51:02.722Z,14.09
2019-03-06T16:56:44.793Z,14.03
2019-03-06T16:59:15.289Z,13.92
2019-03-06T17:01:43.742Z,13.91
2019-03-06T17:04:12.262Z,13.88
2019-03-06T17:07:00.077Z,13.89
2019-03-06T17:10:08.456Z,13.70
2019-03-06T17:15:51.376Z,13.69
2019-03-06T17:19:00.018Z,13.54
2019-03-06T17:21:47.687Z,13.61
2019-03-06T17:24:16.235Z,13.71
2019-03-06T17:26:44.738Z,13.56
2019-03-06T17:29:53.233Z,13.75
2019-03-06T17:32:22.068Z,13.46
2019-03-06T17:35:30.478Z,13.68
2019-03-06T17:38:38.843Z,13.44
2019-03-06T17:41:49.064Z,13.29
2019-03-06T17:44:17.583Z,13.28
2019-03-06T17:46:46.034Z,13.29
2019-03-06T17:49:14.522Z,13.34
2019-03-06T17:54:51.063Z,13.34
2019-03-06T17:57:19.513Z,13.36
2019-03-06T17:59:48.033Z,13.25
2019-03-06T18:02:35.795Z,13.22
2019-03-06T18:05:44.166Z,13.20
2019-03-06T18:08:12.826Z,13.08
2019-03-06T18:10:41.781Z,13.08
2019-03-06T18:13:51.989Z,13.14
2019-03-06T18:16:39.848Z,13.16
2019-03-06T18:19:08.372Z,13.13
2019-03-06T18:27:57.364Z,12.94
2019-03-06T18:35:59.030Z,12.83
2019-03-06T18:38:27.403Z,12.67
2019-03-06T18:40:55.916Z,12.55
2019-03-06T18:43:43.604Z,12.54
2019-03-06T18:46:12.053Z,12.60
2019-03-06T18:51:34.795Z,12.63
2019-03-06T18:54:03.282Z,12.39
2019-03-06T18:56:31.733Z,12.45
2019-03-06T18:59:00.547Z,12.30
2019-03-06T19:04:22.310Z,12.13
2019-03-06T19:06:50.805Z,12.16
2019-03-06T19:09:19.891Z,12.27
2019-03-06T19:11:49.494Z,12.33
2019-03-06T19:14:17.987Z,12.32
2019-03-06T19:17:05.761Z,12.45
2019-03-06T19:19:34.277Z,12.45
2019-03-06T19:25:52.455Z,12.41
2019-03-06T19:28:21.226Z,12.40
2019-03-06T19:30:49.678Z,12.31
2019-03-06T19:33:58.098Z,12.31
2019-03-06T19:36:46.180Z,12.30
2019-03-06T19:39:16.373Z,12.42
2019-03-06T19:41:44.828Z,12.45
2019-03-06T19:44:13.277Z,12.44
2019-03-06T19:47:00.960Z,12.39
2019-03-06T19:52:36.262Z,12.01
2019-03-06T19:55:44.629Z,11.89
2019-03-06T19:58:53.079Z,11.84
2019-03-06T20:01:40.718Z,11.83
2019-03-06T20:06:43.771Z,11.92
2019-03-06T20:09:33.400Z,12.08
2019-03-06T20:12:21.067Z,12.07
2019-03-06T20:14:49.588Z,12.05
2019-03-06T20:17:20.171Z,12.04
2019-03-06T20:19:49.263Z,12.13
2019-03-06T20:28:29.710Z,12.07
2019-03-06T20:31:17.431Z,12.00
2019-03-06T20:36:19.722Z,12.09
2019-03-06T20:41:54.963Z,12.23
2019-03-06T20:44:23.418Z,12.22
2019-03-06T20:47:11.164Z,12.20
2019-03-06T20:49:39.627Z,12.16
2019-03-06T20:52:08.078Z,12.01
2019-03-06T20:54:36.881Z,12.02
2019-03-06T20:57:05.334Z,11.97
2019-03-06T20:59:33.967Z,11.94
2019-03-06T21:02:02.798Z,11.85
2019-03-06T21:04:31.256Z,12.01
2019-03-06T21:06:59.772Z,11.69
2019-03-06T21:09:28.677Z,11.49
2019-03-06T21:11:57.199Z,11.54
2019-03-06T21:14:25.645Z,11.48
2019-03-06T21:16:54.358Z,11.49
2019-03-06T21:19:22.839Z,11.50
2019-03-06T21:21:51.287Z,11.31
2019-03-06T21:24:19.780Z,11.42
2019-03-06T21:26:49.383Z,11.34
2019-03-06T21:29:17.908Z,11.18
2019-03-06T21:31:46.896Z,11.26
2019-03-06T21:34:15.490Z,11.25
2019-03-06T21:36:44.025Z,11.13
2019-03-06T21:39:22.784Z,11.24
2019-03-06T21:41:51.293Z,11.21
2019-03-06T21:44:19.809Z,11.25
2019-03-06T21:46:48.397Z,11.10
2019-03-06T21:49:16.924Z,11.08
2019-03-06T21:51:45.381Z,10.95
2019-03-06T21:54:13.933Z,11.09
2019-03-06T21:56:42.580Z,10.88
2019-03-06T21:59:11.093Z,10.87
2019-03-06T22:01:39.755Z,10.77
2019-03-06T22:04:08.555Z,10.88
2019-03-06T22:06:37.014Z,10.92
2019-03-06T22:09:08.660Z,10.80
2019-03-06T22:11:37.379Z,10.77
2019-03-06T22:14:05.826Z,10.76
2019-03-06T22:16:34.376Z,10.87
2019-03-06T22:19:02.831Z,10.92
2019-03-06T22:21:31.277Z,11.00
2019-03-06T22:23:59.844Z,11.08
2019-03-06T22:26:28.675Z,11.01
2019-03-06T22:28:57.131Z,10.93
2019-03-06T22:31:25.808Z,11.00
2019-03-06T22:33:54.264Z,10.91
2019-03-06T22:36:22.803Z,10.86
2019-03-06T22:38:51.299Z,10.92
2019-03-06T22:41:19.752Z,10.87
2019-03-06T22:43:48.201Z,11.13
2019-03-06T22:46:16.939Z,11.10
2019-03-06T22:48:45.478Z,10.94
2019-03-06T22:51:14.305Z,10.82
2019-03-06T22:53:43.260Z,10.85
2019-03-06T22:56:12.084Z,10.91
2019-03-06T22:58:40.551Z,10.72
2019-03-06T23:01:12.605Z,10.61
2019-03-06T23:03:41.053Z,10.48
2019-03-06T23:06:09.574Z,10.53
2019-03-06T23:08:38.133Z,10.64
2019-03-06T23:11:06.794Z,10.46
2019-03-06T23:13:35.265Z,10.51
2019-03-06T23:16:03.996Z,10.48
2019-03-06T23:18:32.558Z,10.49
2019-03-06T23:21:01.273Z,10.55
2019-03-06T23:23:29.946Z,10.53
2019-03-06T23:25:58.574Z,10.52
2019-03-06T23:28:27.110Z,10.48
2019-03-06T23:30:56.353Z,10.47
2019-03-06T23:33:24.879Z,10.36
2019-03-06T23:35:53.735Z,10.42
2019-03-06T23:38:22.615Z,10.37
2019-03-06T23:40:51.439Z,10.34
2019-03-06T23:43:20.293Z,10.31
2019-03-06T23:45:48.787Z,10.15
2019-03-06T23:48:17.567Z,10.18
2019-03-06T23:50:46.898Z,10.16
2019-03-06T23:53:15.386Z,10.08
2019-03-06T23:55:43.863Z,10.00
2019-03-06T23:58:12.335Z,10.10
